< < Back
Terminal Aerodrome Forecast


Current Version              Previous Versions:   1  2  3  4  5  6  7  8  9  

Terminal Aerodrome Forecast

307
FTUS42 KFFC 201958 AAA
TAFATL
TAF AMD
KATL 201958Z 2020/2124 34005KT 6SM BR OVC012
     FM202200 02003KT P6SM BKN025
     FM210500 05003KT 5SM BR OVC019
     FM210800 05004KT 4SM BR OVC009
     FM211200 06004KT 2SM BR OVC005
     FM211400 07005KT 3SM BR BKN007 OVC015
     FM211600 08006KT P6SM BKN015=

Latest METAR

908
SAUS70 KWBC 210100 RRU
MTRATL
METAR KATL 210152Z 10006KT 5SM HZ OVC012 10/07 A3019 RMK AO2 SLP227 CIG
010V014 T01000072


USA.gov is the U.S. government's official web portal to all federal, state and local government web resources and services.